Time;durP1;ratioP1;P1;durP2;ratioP2;P2;SDS_P1;SDS_P2;PMS_P1;PMS_P2;Temp;Humidity;BMP_temperature;BMP_pressure;BME280_temperature;BME280_humidity;BME280_pressure;Samples;Min_cycle;Max_cycle;Signal;HPM_P1;HPM_P2
2022/07/31 00:00:41;;;;;;;5.03;2.67;;;;;;;15.96;85.56;98959.25;5065367;28;20069;-68
2022/07/31 00:03:07;;;;;;;2.97;2.53;;;;;;;15.95;84.90;98963.03;5071234;28;20391;-67
2022/07/31 00:05:33;;;;;;;2.70;2.20;;;;;;;15.87;84.93;98957.09;5058157;28;20524;-68
2022/07/31 00:08:00;;;;;;;4.80;2.70;;;;;;;15.80;87.60;98954.47;5068369;28;20024;-67
2022/07/31 00:10:26;;;;;;;3.13;2.50;;;;;;;15.72;89.99;98960.28;5074362;28;20039;-67
2022/07/31 00:12:51;;;;;;;6.75;2.80;;;;;;;15.64;90.92;98960.53;5071899;28;20032;-67
2022/07/31 00:15:17;;;;;;;4.60;2.67;;;;;;;15.57;92.20;98956.03;5089387;28;20055;-67
2022/07/31 00:17:44;;;;;;;6.22;2.95;;;;;;;15.59;91.48;98958.53;5070711;28;20028;-68
2022/07/31 00:20:14;;;;;;;4.03;2.55;;;;;;;15.66;88.41;98955.69;5065071;28;20484;-67
2022/07/31 00:22:41;;;;;;;3.63;2.50;;;;;;;15.73;86.93;98953.72;5071999;28;20028;-68
2022/07/31 00:25:07;;;;;;;6.22;2.85;;;;;;;15.75;88.70;98955.16;5078096;28;20028;-67
2022/07/31 00:27:33;;;;;;;6.68;2.90;;;;;;;15.79;90.35;98960.97;5079255;28;20032;-67
2022/07/31 00:29:58;;;;;;;6.63;3.28;;;;;;;15.81;89.32;98947.13;5074776;28;20016;-67
2022/07/31 00:32:23;;;;;;;5.70;3.80;;;;;;;15.81;87.97;98947.94;5069190;28;20031;-67
2022/07/31 00:34:49;;;;;;;5.90;3.28;;;;;;;15.83;88.32;98948.53;5061629;28;20380;-67
2022/07/31 00:37:14;;;;;;;9.20;3.70;;;;;;;15.86;87.25;98955.44;5071829;28;20056;-68
2022/07/31 00:39:40;;;;;;;4.43;3.60;;;;;;;15.90;85.92;98948.44;5075485;28;20030;-67
2022/07/31 00:42:16;;;;;;;5.55;3.35;;;;;;;15.90;87.31;98946.56;5071143;28;20020;-67
2022/07/31 00:44:41;;;;;;;5.38;3.55;;;;;;;15.89;87.80;98944.03;5088374;28;20499;-67
2022/07/31 00:47:06;;;;;;;4.50;3.17;;;;;;;15.93;89.58;98951.53;5072106;28;20022;-68
2022/07/31 00:49:32;;;;;;;6.05;3.00;;;;;;;16.00;88.39;98945.94;5073903;28;20039;-68
2022/07/31 00:51:57;;;;;;;5.47;2.88;;;;;;;15.99;86.17;98944.31;5074139;28;20085;-67
2022/07/31 00:54:22;;;;;;;5.70;2.60;;;;;;;15.96;84.37;98945.59;5069898;28;20052;-67
2022/07/31 00:56:48;;;;;;;5.18;2.90;;;;;;;15.98;91.11;98948.06;5062657;28;20368;-68
2022/07/31 00:59:13;;;;;;;5.35;3.00;;;;;;;16.13;91.08;98936.72;5065475;28;20024;-68
2022/07/31 01:01:38;;;;;;;4.38;2.83;;;;;;;16.03;91.92;98936.47;5070335;28;20043;-68
2022/07/31 01:04:04;;;;;;;5.10;3.03;;;;;;;16.05;90.84;98951.53;5062851;28;20437;-67
2022/07/31 01:06:29;;;;;;;7.45;2.88;;;;;;;15.90;89.64;98952.00;5067679;28;20059;-68
2022/07/31 01:08:55;;;;;;;5.45;2.70;;;;;;;15.89;87.42;98942.13;5064801;28;20467;-67
2022/07/31 01:11:29;;;;;;;3.80;2.80;;;;;;;15.75;89.31;98948.88;5072731;28;20085;-68
2022/07/31 01:13:58;;;;;;;7.40;2.78;;;;;;;15.68;91.21;98943.47;5067782;28;20024;-68
2022/07/31 01:16:27;;;;;;;3.60;2.70;;;;;;;15.86;91.57;98944.53;5066029;28;20471;-68
2022/07/31 01:18:55;;;;;;;3.42;2.58;;;;;;;15.81;90.62;98937.03;5078914;28;20058;-67
2022/07/31 01:22:07;;;;;;;4.93;2.97;;;;;;;15.71;91.45;98943.03;5073126;28;20024;-67
2022/07/31 01:24:47;;;;;;;4.65;2.50;;;;;;;15.61;91.96;98936.47;5020497;28;20480;-67
2022/07/31 01:27:22;;;;;;;3.85;2.95;;;;;;;15.53;93.66;98952.09;5070224;28;20490;-68
2022/07/31 01:29:52;;;;;;;4.38;2.85;;;;;;;15.48;94.39;98945.66;5088265;28;20559;-67
2022/07/31 01:32:25;;;;;;;9.27;2.97;;;;;;;15.30;96.31;98941.09;5085361;28;20059;-68
2022/07/31 01:35:06;;;;;;;3.60;2.97;;;;;;;15.33;97.77;98948.84;5067940;28;20769;-68
2022/07/31 01:37:41;;;;;;;4.55;2.83;;;;;;;15.47;95.40;98946.75;5071482;28;20479;-67
2022/07/31 01:40:15;;;;;;;3.70;2.72;;;;;;;15.42;95.88;98943.88;5068272;28;20111;-67
2022/07/31 01:42:50;;;;;;;3.97;2.95;;;;;;;15.39;96.63;98955.25;5070201;28;20038;-67
2022/07/31 01:45:18;;;;;;;4.13;3.10;;;;;;;15.29;95.65;98950.34;5072221;28;20028;-67
2022/07/31 01:47:45;;;;;;;4.35;2.95;;;;;;;15.23;98.36;98951.28;5069534;28;20024;-67
2022/07/31 01:50:11;;;;;;;5.75;2.80;;;;;;;15.30;97.00;98946.53;5065565;28;20016;-67
2022/07/31 01:52:39;;;;;;;4.03;2.80;;;;;;;15.22;98.04;98939.53;5069279;28;20020;-68
2022/07/31 01:55:08;;;;;;;5.40;3.05;;;;;;;15.09;99.53;98948.72;5067841;28;20032;-67
2022/07/31 01:57:35;;;;;;;6.22;3.13;;;;;;;15.00;100.00;98947.34;5070447;28;20131;-67
2022/07/31 02:00:06;;;;;;;3.83;3.08;;;;;;;14.93;100.00;98943.03;5071634;28;20020;-67
2022/07/31 02:02:33;;;;;;;3.85;3.17;;;;;;;14.86;100.00;98940.41;5073096;28;20035;-67
2022/07/31 02:05:01;;;;;;;8.90;3.35;;;;;;;14.85;100.00;98944.19;5072906;28;20077;-67
2022/07/31 02:07:28;;;;;;;7.15;3.50;;;;;;;14.79;100.00;98948.66;5062645;28;20062;-67
2022/07/31 02:09:55;;;;;;;7.43;3.95;;;;;;;14.72;100.00;98945.16;5085392;28;20367;-67
2022/07/31 02:12:21;;;;;;;4.95;3.60;;;;;;;14.70;100.00;98952.75;5072829;28;20066;-67
2022/07/31 02:14:49;;;;;;;5.15;3.13;;;;;;;14.61;100.00;98948.66;5072005;28;20375;-67
2022/07/31 02:17:16;;;;;;;4.47;3.60;;;;;;;14.64;100.00;98938.13;5076879;28;20063;-67
2022/07/31 02:19:41;;;;;;;4.22;3.70;;;;;;;14.78;100.00;98946.16;5071164;28;20036;-67
2022/07/31 02:22:07;;;;;;;5.68;3.42;;;;;;;14.81;100.00;98945.72;5067397;28;20130;-68
2022/07/31 02:24:33;;;;;;;6.75;3.63;;;;;;;14.76;100.00;98945.56;5074860;28;21554;-67
2022/07/31 02:27:01;;;;;;;3.85;3.40;;;;;;;14.74;100.00;98931.34;5069631;28;21364;-67
2022/07/31 02:29:30;;;;;;;4.30;3.42;;;;;;;14.68;100.00;98936.63;5074665;28;20466;-67
2022/07/31 02:31:57;;;;;;;4.05;3.63;;;;;;;14.72;100.00;98938.88;5078991;28;20395;-67
2022/07/31 02:34:23;;;;;;;4.32;3.15;;;;;;;14.72;100.00;98939.72;5073312;28;20031;-67
2022/07/31 02:36:52;;;;;;;5.80;3.80;;;;;;;14.86;100.00;98934.97;5067978;28;20052;-67
2022/07/31 02:39:19;;;;;;;4.45;3.17;;;;;;;14.74;100.00;98934.88;5078270;28;20058;-67
2022/07/31 02:41:46;;;;;;;6.53;3.95;;;;;;;14.72;100.00;98941.63;5077356;28;20047;-67
2022/07/31 02:44:13;;;;;;;10.30;3.65;;;;;;;14.58;100.00;98939.03;5078290;28;20088;-67
2022/07/31 02:46:40;;;;;;;4.25;3.50;;;;;;;14.42;100.00;98937.72;5069811;28;20031;-67
2022/07/31 02:49:06;;;;;;;4.00;3.13;;;;;;;14.49;100.00;98934.94;5072075;28;20027;-67
2022/07/31 02:51:33;;;;;;;6.28;3.15;;;;;;;14.48;100.00;98934.06;5076843;28;20115;-67
2022/07/31 02:53:58;;;;;;;7.72;2.50;;;;;;;14.51;100.00;98937.41;5071292;28;20134;-67
2022/07/31 02:56:24;;;;;;;3.95;3.40;;;;;;;14.62;100.00;98942.16;5066345;28;20040;-67
2022/07/31 02:58:50;;;;;;;4.03;3.47;;;;;;;14.55;100.00;98941.41;5071019;28;20076;-67
2022/07/31 03:01:15;;;;;;;5.82;3.67;;;;;;;14.53;100.00;98936.16;5068817;28;20028;-67
2022/07/31 03:03:41;;;;;;;5.05;3.72;;;;;;;14.41;100.00;98944.22;5071721;28;20527;-67
2022/07/31 03:06:06;;;;;;;6.63;4.03;;;;;;;14.31;100.00;98934.91;5064912;28;20035;-67
2022/07/31 03:08:32;;;;;;;5.53;3.90;;;;;;;14.25;100.00;98932.03;5064538;28;20021;-67
2022/07/31 03:10:57;;;;;;;6.28;4.28;;;;;;;14.25;100.00;98934.75;5071830;28;21570;-67
2022/07/31 03:13:26;;;;;;;8.75;4.10;;;;;;;14.20;100.00;98934.59;5070350;28;20110;-67
2022/07/31 03:15:52;;;;;;;5.53;3.65;;;;;;;14.01;100.00;98933.69;5072390;28;20056;-67
2022/07/31 03:18:20;;;;;;;5.30;4.03;;;;;;;13.95;100.00;98934.59;5071691;28;20032;-68
2022/07/31 03:20:50;;;;;;;6.03;4.50;;;;;;;13.89;100.00;98926.50;5069841;28;20155;-67
2022/07/31 03:23:18;;;;;;;5.72;4.20;;;;;;;13.90;100.00;98933.59;5073712;28;20032;-67
2022/07/31 03:25:44;;;;;;;4.13;3.28;;;;;;;13.93;100.00;98935.84;5083196;28;20084;-67
2022/07/31 03:28:10;;;;;;;3.85;3.30;;;;;;;13.90;100.00;98937.13;5067992;28;20455;-67
2022/07/31 03:30:35;;;;;;;5.78;4.00;;;;;;;13.88;100.00;98938.41;5069059;28;20028;-67
2022/07/31 03:33:02;;;;;;;4.90;3.60;;;;;;;13.85;100.00;98939.69;5071380;28;20057;-67
2022/07/31 03:35:28;;;;;;;6.25;3.67;;;;;;;13.82;100.00;98945.56;5076361;28;20028;-68
2022/07/31 03:37:53;;;;;;;4.47;3.50;;;;;;;13.81;100.00;98944.75;5070299;28;20115;-68
2022/07/31 03:40:18;;;;;;;4.88;3.55;;;;;;;13.85;100.00;98934.25;5071456;28;20066;-67
2022/07/31 03:42:46;;;;;;;5.30;3.90;;;;;;;13.76;100.00;98939.13;5074265;28;20036;-67
2022/07/31 03:45:12;;;;;;;5.82;3.58;;;;;;;13.74;100.00;98933.06;5069879;28;20024;-67
2022/07/31 03:47:38;;;;;;;5.40;3.88;;;;;;;13.86;100.00;98940.50;5067573;28;20016;-67
2022/07/31 03:50:05;;;;;;;4.90;3.80;;;;;;;13.86;100.00;98943.22;5067049;28;20012;-67
2022/07/31 03:52:31;;;;;;;4.28;3.40;;;;;;;13.97;100.00;98939.81;5073219;28;20069;-68
2022/07/31 03:54:56;;;;;;;6.60;3.47;;;;;;;13.97;100.00;98942.53;5067293;28;20025;-68
2022/07/31 03:57:25;;;;;;;4.97;3.80;;;;;;;13.95;100.00;98947.34;5062207;28;20487;-67
2022/07/31 03:59:51;;;;;;;6.32;4.15;;;;;;;13.95;100.00;98944.63;5072233;28;20052;-67
2022/07/31 04:02:16;;;;;;;4.32;3.72;;;;;;;13.88;100.00;98950.13;5070928;28;20567;-67
2022/07/31 04:04:43;;;;;;;11.30;4.10;;;;;;;13.84;100.00;98938.03;5060238;28;20032;-67
2022/07/31 04:07:09;;;;;;;5.70;4.03;;;;;;;13.88;100.00;98947.41;5071659;28;20024;-67
2022/07/31 04:09:35;;;;;;;8.98;4.07;;;;;;;13.90;100.00;98949.91;5072274;28;20099;-67
2022/07/31 04:12:00;;;;;;;5.03;3.85;;;;;;;13.86;100.00;98954.09;5070171;28;20535;-67
2022/07/31 04:14:25;;;;;;;7.05;3.95;;;;;;;14.05;100.00;98944.97;5068576;28;20027;-67
2022/07/31 04:16:51;;;;;;;9.25;3.63;;;;;;;14.05;100.00;98936.81;5071104;28;20030;-67
2022/07/31 04:19:16;;;;;;;5.40;3.60;;;;;;;14.07;100.00;98933.84;5065077;28;20387;-67
2022/07/31 04:21:42;;;;;;;5.95;3.83;;;;;;;14.03;100.00;98939.75;5070520;28;20078;-67
2022/07/31 04:24:07;;;;;;;8.27;4.30;;;;;;;14.10;100.00;98936.16;5072470;28;20035;-67
2022/07/31 04:26:33;;;;;;;8.35;4.45;;;;;;;14.12;100.00;98929.44;5069692;28;20155;-67
2022/07/31 04:28:58;;;;;;;8.25;4.35;;;;;;;14.13;100.00;98939.25;5069465;28;20044;-67
2022/07/31 04:31:24;;;;;;;12.75;3.83;;;;;;;14.13;100.00;98941.13;5072286;28;20455;-67
2022/07/31 04:33:49;;;;;;;7.45;4.32;;;;;;;14.12;100.00;98937.59;5065855;28;20016;-67
2022/07/31 04:36:16;;;;;;;10.50;4.75;;;;;;;14.16;100.00;98946.97;5070594;28;20028;-67
2022/07/31 04:38:42;;;;;;;6.32;4.15;;;;;;;14.24;100.00;98954.84;5068336;28;20031;-67
2022/07/31 04:41:07;;;;;;;10.18;5.10;;;;;;;14.25;100.00;98948.34;5082981;28;20023;-67
2022/07/31 04:43:33;;;;;;;6.82;4.28;;;;;;;14.39;100.00;98949.06;5071339;28;20036;-67
2022/07/31 04:45:58;;;;;;;8.13;4.15;;;;;;;14.54;100.00;98958.75;5070615;28;20069;-67
2022/07/31 04:48:24;;;;;;;5.47;3.80;;;;;;;14.64;100.00;98970.81;5062777;28;20034;-68
2022/07/31 04:50:49;;;;;;;7.13;4.40;;;;;;;14.78;100.00;98963.34;5063633;28;20078;-67
2022/07/31 04:53:14;;;;;;;5.75;3.80;;;;;;;14.95;100.00;98970.91;5065193;28;20032;-68
2022/07/31 04:55:41;;;;;;;9.57;4.60;;;;;;;15.15;100.00;98963.31;5064955;28;20034;-68
2022/07/31 04:58:06;;;;;;;10.27;4.10;;;;;;;15.38;100.00;98961.75;5074413;28;20128;-68
2022/07/31 05:00:32;;;;;;;6.32;4.22;;;;;;;15.55;100.00;98952.69;5059177;28;20103;-68
2022/07/31 05:02:57;;;;;;;8.23;3.60;;;;;;;15.73;100.00;98951.00;5069709;28;20052;-67
2022/07/31 05:05:23;;;;;;;9.80;3.35;;;;;;;16.00;97.36;98954.97;5067730;28;20024;-67
2022/07/31 05:07:49;;;;;;;5.70;4.00;;;;;;;16.26;91.84;98954.75;5070387;28;20024;-68
2022/07/31 05:11:21;;;;;;;8.95;4.18;;;;;;;16.75;91.51;98958.09;5065829;28;20028;-68
2022/07/31 05:12:59;;;;;;;7.47;4.30;;;;;;;17.08;84.83;98944.63;5084930;28;20032;-67
2022/07/31 05:15:25;;;;;;;4.72;3.72;;;;;;;17.53;82.45;98953.97;5069011;28;20020;-68
2022/07/31 05:17:51;;;;;;;4.82;3.47;;;;;;;17.89;81.32;98952.72;5070439;28;20063;-68
2022/07/31 05:20:16;;;;;;;4.43;3.60;;;;;;;18.18;79.39;98944.41;5067733;28;20077;-68
2022/07/31 05:22:41;;;;;;;4.82;3.63;;;;;;;18.43;77.34;98949.47;5070246;28;20044;-68
2022/07/31 05:25:07;;;;;;;6.68;3.40;;;;;;;18.73;74.02;98942.75;5070996;28;20468;-69
2022/07/31 05:27:33;;;;;;;3.65;3.00;;;;;;;19.10;71.00;98948.50;5071338;28;20056;-70
2022/07/31 05:29:59;;;;;;;4.30;3.13;;;;;;;19.28;69.79;98944.59;5071858;28;20450;-70
2022/07/31 05:32:24;;;;;;;5.72;3.70;;;;;;;19.19;69.77;98938.72;5076393;28;20025;-70
2022/07/31 05:34:49;;;;;;;6.10;3.90;;;;;;;19.17;68.80;98945.56;5072129;28;20032;-70
2022/07/31 05:37:15;;;;;;;9.60;3.72;;;;;;;19.23;70.94;98945.38;5073611;28;20107;-71
2022/07/31 05:39:40;;;;;;;5.68;3.65;;;;;;;19.00;69.40;98951.13;5075672;28;20153;-70
2022/07/31 05:42:06;;;;;;;4.53;3.08;;;;;;;18.92;71.12;98955.13;5073857;28;20027;-68
2022/07/31 05:44:32;;;;;;;10.30;3.08;;;;;;;18.80;69.73;98952.50;5073784;28;20040;-68
2022/07/31 05:46:58;;;;;;;5.80;3.13;;;;;;;18.82;69.69;98957.75;5073697;28;20016;-68
2022/07/31 05:49:25;;;;;;;4.95;3.22;;;;;;;18.92;68.92;98946.09;5070087;28;20028;-68
2022/07/31 05:51:53;;;;;;;7.38;3.05;;;;;;;18.88;69.93;98956.72;5074838;28;20033;-68
2022/07/31 05:54:19;;;;;;;4.28;3.38;;;;;;;19.05;69.25;98956.66;5075194;28;20024;-70
2022/07/31 05:56:44;;;;;;;5.82;2.78;;;;;;;19.32;66.55;98947.66;5064630;28;20114;-69
2022/07/31 05:59:10;;;;;;;6.35;3.60;;;;;;;19.23;67.32;98956.34;5064425;28;20146;-61
2022/07/31 06:01:36;;;;;;;3.33;2.90;;;;;;;19.16;68.27;98958.44;5067976;28;20406;-62
2022/07/31 06:04:01;;;;;;;3.83;3.15;;;;;;;19.46;66.47;98951.66;5066028;28;20032;-62
2022/07/31 06:06:27;;;;;;;4.47;2.78;;;;;;;19.78;66.13;98957.25;5079166;28;20020;-62
2022/07/31 06:08:52;;;;;;;8.35;3.03;;;;;;;19.86;64.23;98956.78;5072642;28;20486;-62
2022/07/31 06:11:18;;;;;;;4.22;2.60;;;;;;;20.10;63.77;98959.19;5070970;28;20020;-62
2022/07/31 06:13:43;;;;;;;7.93;3.55;;;;;;;20.29;63.04;98963.16;5071116;28;20028;-62
2022/07/31 06:16:15;;;;;;;3.55;2.70;;;;;;;20.46;62.31;98964.94;5070575;28;20031;-62
2022/07/31 06:18:41;;;;;;;4.40;2.83;;;;;;;20.57;61.21;98958.47;5074184;28;20394;-62
2022/07/31 06:21:06;;;;;;;4.63;2.45;;;;;;;20.54;62.11;98964.47;5073880;28;20027;-62
2022/07/31 06:23:31;;;;;;;3.80;2.63;;;;;;;20.49;61.66;98962.50;5078495;28;20036;-62
2022/07/31 06:25:57;;;;;;;5.07;2.83;;;;;;;20.65;61.94;98962.63;5067899;28;20028;-62
2022/07/31 06:28:23;;;;;;;4.45;2.45;;;;;;;20.76;62.07;98956.09;5063408;28;20035;-62
2022/07/31 06:30:48;;;;;;;5.30;2.95;;;;;;;20.94;60.55;98960.31;5063774;28;20032;-62
2022/07/31 06:33:13;;;;;;;4.43;2.67;;;;;;;20.83;61.28;98962.19;5068806;28;20459;-62
2022/07/31 06:35:39;;;;;;;6.55;2.65;;;;;;;21.02;61.16;98968.06;5067320;28;20039;-62
2022/07/31 06:38:04;;;;;;;5.80;2.40;;;;;;;21.22;60.95;98970.91;5062576;28;20038;-62
2022/07/31 06:40:29;;;;;;;6.13;2.70;;;;;;;21.99;58.09;98971.13;5066704;28;20012;-62
2022/07/31 06:42:55;;;;;;;4.10;2.10;;;;;;;22.38;57.20;98973.38;5066008;28;20035;-63
2022/07/31 06:45:20;;;;;;;5.93;2.78;;;;;;;22.92;54.71;98969.97;5064221;28;20023;-63
2022/07/31 06:47:46;;;;;;;7.25;2.67;;;;;;;22.78;54.76;98970.81;5061047;28;20391;-62
2022/07/31 06:50:11;;;;;;;3.00;2.13;;;;;;;23.14;53.61;98957.78;5070067;28;20521;-62
2022/07/31 06:52:37;;;;;;;5.63;2.22;;;;;;;23.25;53.69;98961.31;5066835;28;20111;-63
2022/07/31 06:55:03;;;;;;;3.83;2.38;;;;;;;23.24;53.38;98973.44;5063306;28;20035;-63
2022/07/31 06:57:28;;;;;;;3.38;2.08;;;;;;;23.68;52.58;98970.75;5070108;28;20463;-62
2022/07/31 06:59:53;;;;;;;5.22;2.70;;;;;;;23.66;52.98;98967.47;5060450;28;20024;-62
2022/07/31 07:02:19;;;;;;;3.50;2.35;;;;;;;24.01;52.05;98971.94;5078787;28;20036;-62
2022/07/31 07:04:44;;;;;;;3.92;2.22;;;;;;;23.58;53.77;98973.59;5060625;28;20028;-63
2022/07/31 07:07:10;;;;;;;3.60;2.00;;;;;;;23.69;52.40;98972.41;5071770;28;20028;-63
2022/07/31 07:09:36;;;;;;;6.57;2.28;;;;;;;24.42;51.16;98973.56;5072146;28;20459;-63
2022/07/31 07:12:01;;;;;;;3.13;1.98;;;;;;;25.67;47.45;98961.66;5069018;28;20028;-63
2022/07/31 07:14:27;;;;;;;3.25;1.77;;;;;;;26.13;45.81;98967.34;5067009;28;20028;-62
2022/07/31 07:16:52;;;;;;;3.22;2.08;;;;;;;25.98;45.55;98959.28;5066321;28;20063;-62
2022/07/31 07:19:18;;;;;;;4.30;2.05;;;;;;;25.89;45.89;98955.56;5064908;28;20608;-62
2022/07/31 07:21:43;;;;;;;3.35;1.90;;;;;;;25.24;47.26;98961.69;5070192;28;20024;-62
2022/07/31 07:24:09;;;;;;;3.33;2.17;;;;;;;25.27;47.23;98966.63;5069417;28;20433;-62
2022/07/31 07:26:35;;;;;;;7.00;1.88;;;;;;;25.82;45.90;98958.66;5070109;28;20028;-62
2022/07/31 07:29:01;;;;;;;2.92;1.85;;;;;;;26.37;44.86;98955.31;5073536;28;20077;-62
2022/07/31 07:31:27;;;;;;;2.72;1.75;;;;;;;26.99;42.73;98952.25;5075779;28;20032;-62
2022/07/31 07:33:54;;;;;;;2.97;2.00;;;;;;;26.82;43.47;98961.19;5066160;28;20050;-62
2022/07/31 07:36:20;;;;;;;2.53;1.67;;;;;;;26.63;43.36;98952.94;5053353;28;20032;-63
2022/07/31 07:38:45;;;;;;;3.03;1.80;;;;;;;25.75;45.25;98960.97;5066610;28;20081;-62
2022/07/31 07:41:10;;;;;;;3.67;1.90;;;;;;;25.32;45.43;98963.78;5072912;28;20064;-62
2022/07/31 07:43:36;;;;;;;3.53;1.92;;;;;;;25.21;46.00;98967.81;5073142;28;20051;-62
2022/07/31 07:46:01;;;;;;;6.20;2.20;;;;;;;25.22;44.59;98961.16;5071938;28;20105;-63
2022/07/31 07:48:26;;;;;;;4.88;1.98;;;;;;;24.92;46.49;98957.59;5070880;28;20115;-63
2022/07/31 07:50:52;;;;;;;3.63;1.80;;;;;;;24.83;45.84;98962.94;5076518;28;20056;-63
2022/07/31 07:53:17;;;;;;;3.28;1.90;;;;;;;24.81;46.09;98965.19;5069344;28;20119;-62
2022/07/31 07:55:43;;;;;;;2.78;1.85;;;;;;;24.76;46.09;98961.63;5066827;28;20056;-62
2022/07/31 07:58:08;;;;;;;3.55;1.80;;;;;;;24.65;46.25;98953.47;5069025;28;20024;-62
2022/07/31 08:00:33;;;;;;;2.92;1.80;;;;;;;24.52;45.79;98956.88;5078475;28;20055;-62
2022/07/31 08:02:59;;;;;;;2.20;1.65;;;;;;;24.73;46.02;98962.22;5074644;28;20035;-62
2022/07/31 08:05:24;;;;;;;2.38;1.80;;;;;;;25.00;44.88;98956.13;5075459;28;20027;-62
2022/07/31 08:07:50;;;;;;;3.25;1.90;;;;;;;24.71;46.30;98955.06;5066303;28;20024;-62
2022/07/31 08:10:18;;;;;;;2.47;1.80;;;;;;;25.00;45.79;98956.94;5066820;28;20024;-62
2022/07/31 08:12:44;;;;;;;5.28;2.08;;;;;;;25.24;44.38;98962.50;5067205;28;20028;-62
2022/07/31 08:15:10;;;;;;;2.58;1.73;;;;;;;25.35;45.35;98954.88;5059691;28;20066;-62
2022/07/31 08:17:35;;;;;;;4.30;1.95;;;;;;;25.73;44.41;98952.97;5066508;28;20028;-62
2022/07/31 08:20:01;;;;;;;2.63;1.67;;;;;;;26.07;44.15;98959.41;5070786;28;20028;-63
2022/07/31 08:22:26;;;;;;;4.10;1.77;;;;;;;26.79;42.11;98951.50;5069582;28;20115;-62
2022/07/31 08:24:51;;;;;;;3.30;1.58;;;;;;;27.29;40.28;98948.88;5068668;28;20024;-62
2022/07/31 08:27:23;;;;;;;2.50;1.77;;;;;;;28.65;38.47;98949.06;5071264;28;20124;-63
2022/07/31 08:29:49;;;;;;;4.13;1.58;;;;;;;30.32;35.59;98945.19;5062258;28;20047;-63
2022/07/31 08:32:16;;;;;;;2.53;1.40;;;;;;;31.86;33.33;98934.78;5072525;28;20031;-63
2022/07/31 08:34:41;;;;;;;3.50;1.60;;;;;;;33.83;28.78;98930.31;5066933;28;20450;-63
2022/07/31 08:37:07;;;;;;;3.30;1.45;;;;;;;35.28;26.96;98928.25;5072405;28;20024;-63
2022/07/31 08:39:32;;;;;;;2.25;1.42;;;;;;;35.76;26.29;98919.69;5071788;28;20074;-63
2022/07/31 08:41:58;;;;;;;4.03;1.60;;;;;;;34.80;27.38;98927.44;5067941;28;20479;-63
2022/07/31 08:44:24;;;;;;;1.60;1.33;;;;;;;34.84;27.36;98928.31;5066649;28;20493;-63
2022/07/31 08:46:53;;;;;;;4.60;1.40;;;;;;;37.61;24.02;98920.69;5070898;28;20364;-65
2022/07/31 08:49:25;;;;;;;2.72;1.70;;;;;;;37.21;24.29;98928.53;5068799;28;20028;-66
2022/07/31 08:51:52;;;;;;;1.63;1.00;;;;;;;38.78;22.50;98923.31;5070230;28;20027;-66
2022/07/31 08:54:19;;;;;;;2.58;1.20;;;;;;;39.24;22.13;98920.88;5063611;28;20074;-66
2022/07/31 08:56:45;;;;;;;5.03;1.50;;;;;;;38.11;22.77;98919.34;5075329;28;20110;-66
2022/07/31 08:59:11;;;;;;;5.82;1.17;;;;;;;38.49;22.11;98920.22;5070416;28;20027;-66
2022/07/31 09:01:37;;;;;;;3.08;0.95;;;;;;;39.55;21.29;98920.72;5072459;28;20066;-66
2022/07/31 09:04:04;;;;;;;2.60;1.38;;;;;;;38.48;21.07;98920.59;5072496;28;20359;-65
2022/07/31 09:06:29;;;;;;;4.18;1.50;;;;;;;38.99;21.21;98915.03;5070475;28;20043;-66
2022/07/31 09:08:55;;;;;;;5.20;1.23;;;;;;;40.25;20.29;98921.50;5071106;28;20052;-66
2022/07/31 09:11:21;;;;;;;3.15;1.27;;;;;;;40.66;20.68;98904.16;5070579;28;20386;-66
2022/07/31 09:14:01;;;;;;;1.85;1.13;;;;;;;40.93;19.78;98915.97;5092749;28;20061;-64
2022/07/31 09:16:28;;;;;;;2.28;1.23;;;;;;;39.50;21.41;98915.44;5075416;28;20497;-65
2022/07/31 09:19:02;;;;;;;1.60;1.00;;;;;;;41.02;20.55;98907.84;5072542;28;20034;-65
2022/07/31 09:21:38;;;;;;;1.73;1.20;;;;;;;40.24;20.08;98906.50;5066433;28;20140;-65
2022/07/31 09:24:04;;;;;;;1.45;1.10;;;;;;;40.99;20.11;98902.97;5070298;28;20035;-65
2022/07/31 09:26:33;;;;;;;1.75;1.10;;;;;;;41.60;19.05;98900.09;5065004;28;20021;-65
2022/07/31 09:29:00;;;;;;;3.42;0.93;;;;;;;39.85;20.81;98898.66;5071031;28;20038;-65
2022/07/31 09:31:34;;;;;;;2.42;1.38;;;;;;;39.90;20.46;98896.63;5073493;28;20019;-64
2022/07/31 09:34:00;;;;;;;2.00;0.98;;;;;;;39.43;20.34;98902.84;5084593;28;20024;-66
2022/07/31 09:36:26;;;;;;;1.75;1.13;;;;;;;39.57;20.64;98901.31;5074879;28;20368;-66
2022/07/31 09:38:52;;;;;;;2.08;1.00;;;;;;;39.73;20.55;98896.13;5073606;28;20028;-66
2022/07/31 09:41:20;;;;;;;2.35;1.38;;;;;;;39.74;21.04;98889.25;5077725;28;20019;-66
2022/07/31 09:43:55;;;;;;;;;;;;;;;40.16;20.16;98887.81;5071112;28;20589;-66
2022/07/31 09:46:21;;;;;;;1.33;0.90;;;;;;;39.43;20.65;98897.19;5079594;28;19912;-66
2022/07/31 09:48:52;;;;;;;1.58;1.00;;;;;;;40.29;20.09;98879.78;5071703;28;20398;-65
2022/07/31 09:51:17;;;;;;;3.17;1.40;;;;;;;40.45;19.82;98887.91;5063897;28;20024;-66
2022/07/31 09:53:45;;;;;;;2.67;1.00;;;;;;;37.88;22.19;98885.53;5071128;28;20035;-66
2022/07/31 09:56:11;;;;;;;2.00;1.08;;;;;;;35.58;23.87;98884.72;5084993;28;21097;-66
2022/07/31 09:58:39;;;;;;;2.30;1.27;;;;;;;34.77;25.04;98882.34;5073992;28;20476;-65
2022/07/31 10:01:07;;;;;;;2.65;1.05;;;;;;;34.86;25.26;98885.81;5073093;28;20012;-65
2022/07/31 10:03:35;;;;;;;1.27;1.08;;;;;;;35.44;24.65;98877.56;5066993;28;20037;-65
2022/07/31 10:06:03;;;;;;;2.97;1.70;;;;;;;35.69;23.90;98877.34;5064805;28;20080;-66
2022/07/31 10:08:33;;;;;;;1.45;1.00;;;;;;;37.54;23.62;98850.00;5064226;28;20028;-65
2022/07/31 10:11:01;;;;;;;2.08;1.17;;;;;;;37.62;22.83;98869.47;5072651;28;20048;-65
2022/07/31 10:13:28;;;;;;;3.90;1.10;;;;;;;38.50;21.62;98856.81;5066973;28;20027;-66
2022/07/31 10:15:56;;;;;;;2.08;1.10;;;;;;;38.26;22.13;98868.66;5068973;28;20043;-65
2022/07/31 10:18:26;;;;;;;1.45;1.00;;;;;;;40.21;21.36;98858.28;5070556;28;20035;-65
2022/07/31 10:20:54;;;;;;;1.17;0.90;;;;;;;39.15;21.72;98857.34;5067370;28;20043;-67
2022/07/31 10:23:26;;;;;;;;;;;;;;;39.36;21.19;98854.69;5062630;28;20032;-65
2022/07/31 10:25:56;;;;;;;1.15;0.80;;;;;;;40.81;20.56;98865.28;5064641;28;19916;-66
2022/07/31 10:28:23;;;;;;;0.90;0.73;;;;;;;40.95;19.89;98856.75;5061486;28;20421;-66
2022/07/31 10:30:49;;;;;;;3.05;1.05;;;;;;;42.01;19.59;98852.03;5070161;28;20020;-66
2022/07/31 10:33:16;;;;;;;2.42;0.90;;;;;;;41.22;20.00;98845.81;5066151;28;20084;-67
2022/07/31 10:36:21;;;;;;;4.22;1.10;;;;;;;41.17;19.77;98849.06;5076698;28;20035;-67
2022/07/31 10:39:19;;;;;;;2.22;0.80;;;;;;;41.07;20.23;98833.63;5066980;28;20082;-67
2022/07/31 10:42:05;;;;;;;1.95;1.00;;;;;;;41.45;19.81;98836.81;5064961;28;20437;-67
2022/07/31 10:44:30;;;;;;;4.45;0.85;;;;;;;42.62;19.58;98836.63;5072113;28;20039;-66
2022/07/31 10:46:56;;;;;;;1.40;0.80;;;;;;;41.42;20.08;98817.75;5062810;28;20077;-66
2022/07/31 10:49:40;;;;;;;2.80;0.80;;;;;;;39.93;21.10;98848.50;5066427;28;20415;-67
2022/07/31 10:52:05;;;;;;;1.65;1.02;;;;;;;40.38;21.40;98834.84;5066750;28;20028;-67
2022/07/31 10:54:39;;;;;;;2.30;0.90;;;;;;;41.12;20.44;98830.41;5068897;28;20031;-67
2022/07/31 10:57:04;;;;;;;3.10;0.77;;;;;;;40.94;20.68;98829.59;5063814;28;20017;-67
2022/07/31 10:59:30;;;;;;;4.75;1.15;;;;;;;41.27;20.16;98828.34;5074284;28;20382;-67
2022/07/31 11:01:55;;;;;;;3.08;1.10;;;;;;;40.96;20.20;98810.13;5067883;28;20039;-67
2022/07/31 11:04:31;;;;;;;1.93;1.10;;;;;;;41.07;20.00;98807.28;5069500;28;20063;-67
2022/07/31 11:06:57;;;;;;;3.88;1.00;;;;;;;40.72;20.92;98812.59;5065554;28;20282;-67
2022/07/31 11:09:24;;;;;;;3.63;1.02;;;;;;;37.71;23.80;98807.88;5069983;28;20388;-67
2022/07/31 11:11:50;;;;;;;1.45;0.93;;;;;;;40.49;21.63;98809.34;5068772;28;20020;-68
2022/07/31 11:14:16;;;;;;;1.00;0.90;;;;;;;40.71;20.56;98804.47;5073029;28;20154;-67
2022/07/31 11:16:52;;;;;;;1.05;0.85;;;;;;;36.11;24.68;98792.91;5071310;28;20036;-67
2022/07/31 11:19:17;;;;;;;3.08;1.00;;;;;;;38.58;23.12;98790.63;5065514;28;20035;-67
2022/07/31 11:21:43;;;;;;;1.90;1.13;;;;;;;39.33;22.49;98773.38;5075097;28;20028;-67
2022/07/31 11:24:19;;;;;;;4.13;1.00;;;;;;;38.87;23.00;98785.19;5068582;28;20058;-67
2022/07/31 11:26:57;;;;;;;3.55;1.00;;;;;;;38.36;23.53;98788.81;5062820;28;20027;-66
2022/07/31 11:29:34;;;;;;;4.55;1.10;;;;;;;37.40;23.94;98782.88;5066559;28;20035;-66
2022/07/31 11:32:20;;;;;;;2.05;0.80;;;;;;;38.93;22.99;98774.34;5065939;28;20459;-67